createdAt,value
2017-11-15T00:02:18.474Z,0.80
2017-11-15T00:04:46.252Z,0.90
2017-11-15T00:07:13.249Z,0.80
2017-11-15T00:09:40.249Z,0.90
2017-11-15T00:12:07.247Z,0.90
2017-11-15T00:14:34.248Z,0.90
2017-11-15T00:17:01.264Z,1.00
2017-11-15T00:19:29.028Z,1.10
2017-11-15T00:21:56.786Z,1.10
2017-11-15T00:24:24.546Z,1.10
2017-11-15T00:26:52.315Z,1.10
2017-11-15T00:29:20.105Z,1.20
2017-11-15T00:31:47.112Z,1.10
2017-11-15T00:34:14.121Z,1.20
2017-11-15T00:36:41.118Z,1.10
2017-11-15T00:39:08.879Z,1.20
2017-11-15T00:41:36.653Z,1.10
2017-11-15T00:44:04.415Z,1.10
2017-11-15T00:46:32.202Z,1.10
2017-11-15T00:48:59.206Z,1.10
2017-11-15T00:51:26.985Z,1.00
2017-11-15T00:53:54.757Z,1.00
2017-11-15T00:56:21.769Z,1.00
2017-11-15T00:58:48.755Z,1.00
2017-11-15T01:01:15.766Z,1.00
2017-11-15T01:03:42.763Z,1.00
2017-11-15T01:06:09.763Z,0.90
2017-11-15T01:08:37.526Z,0.90
2017-11-15T01:11:05.330Z,0.90
2017-11-15T01:13:32.335Z,0.90
2017-11-15T01:16:00.097Z,0.80
2017-11-15T01:18:27.861Z,0.80
2017-11-15T01:20:55.625Z,0.80
2017-11-15T01:23:23.390Z,0.80
2017-11-15T01:25:51.155Z,0.80
2017-11-15T01:28:18.938Z,0.80
2017-11-15T01:30:45.936Z,0.80
2017-11-15T01:33:12.945Z,0.80
2017-11-15T01:35:39.958Z,0.80
2017-11-15T01:38:07.730Z,0.80
2017-11-15T01:40:35.493Z,0.70
2017-11-15T01:43:03.248Z,0.70
2017-11-15T01:45:30.998Z,0.70
2017-11-15T01:47:58.012Z,0.70
2017-11-15T01:50:25.014Z,0.60
2017-11-15T01:52:52.793Z,0.60
2017-11-15T01:55:19.800Z,0.60
2017-11-15T01:57:46.874Z,0.60
2017-11-15T02:00:20.547Z,0.60
2017-11-15T02:02:47.561Z,0.60
2017-11-15T02:05:14.567Z,0.60
2017-11-15T02:07:41.574Z,0.60
2017-11-15T02:10:08.583Z,0.70
2017-11-15T02:12:35.574Z,0.70
2017-11-15T02:15:02.586Z,0.70
2017-11-15T02:17:29.575Z,0.80
2017-11-15T02:19:57.347Z,0.70
2017-11-15T02:22:25.094Z,0.70
2017-11-15T02:24:52.115Z,0.70
2017-11-15T02:27:19.110Z,0.70
2017-11-15T02:29:46.124Z,0.80
2017-11-15T02:32:13.123Z,0.80
2017-11-15T02:34:40.118Z,0.80
2017-11-15T02:37:07.132Z,0.80
2017-11-15T02:39:34.177Z,0.70
2017-11-15T02:42:01.156Z,0.70
2017-11-15T02:44:28.155Z,0.60
2017-11-15T02:46:55.155Z,0.50
2017-11-15T02:49:22.917Z,0.40
2017-11-15T02:51:49.914Z,0.40
2017-11-15T02:54:16.904Z,0.40
2017-11-15T02:56:44.678Z,0.40
2017-11-15T02:59:12.436Z,0.40
2017-11-15T03:01:40.207Z,0.40
2017-11-15T03:04:07.972Z,0.40
2017-11-15T03:06:35.751Z,0.40
2017-11-15T03:09:02.746Z,0.40
2017-11-15T03:11:29.755Z,0.30
2017-11-15T03:13:56.755Z,0.30
2017-11-15T03:16:23.762Z,0.30
2017-11-15T03:18:50.751Z,0.30
2017-11-15T03:21:18.530Z,0.50
2017-11-15T03:23:46.289Z,0.50
2017-11-15T03:26:14.053Z,0.60
2017-11-15T03:28:41.807Z,0.60
2017-11-15T03:31:09.636Z,0.60
2017-11-15T03:33:36.632Z,0.60
2017-11-15T03:36:04.386Z,0.60
2017-11-15T03:38:32.154Z,0.50
2017-11-15T03:40:59.915Z,0.50
2017-11-15T03:43:27.683Z,0.40
2017-11-15T03:45:55.448Z,0.30
2017-11-15T03:48:23.215Z,0.20
2017-11-15T03:50:50.978Z,0.20
2017-11-15T03:53:18.000Z,0.20
2017-11-15T03:55:45.011Z,0.30
2017-11-15T03:58:12.012Z,0.30
2017-11-15T04:00:39.771Z,0.10
2017-11-15T04:03:07.539Z,0.10
2017-11-15T04:05:34.535Z,0.00
2017-11-15T04:08:01.535Z,0.00
2017-11-15T04:10:28.527Z,0.00
2017-11-15T04:12:55.581Z,-0.10
2017-11-15T04:15:22.601Z,-0.10
2017-11-15T04:17:49.600Z,-0.10
2017-11-15T04:20:17.376Z,-0.20
2017-11-15T04:22:45.141Z,-0.20
2017-11-15T04:25:12.908Z,-0.30
2017-11-15T04:27:40.663Z,-0.30
2017-11-15T04:30:08.435Z,-0.30
2017-11-15T04:32:35.440Z,-0.30
2017-11-15T04:35:02.441Z,-0.20
2017-11-15T04:37:29.439Z,-0.10
2017-11-15T04:39:56.446Z,-0.10
2017-11-15T04:42:23.451Z,-0.20
2017-11-15T04:44:51.295Z,-0.10
2017-11-15T04:47:18.305Z,-0.10
2017-11-15T04:49:45.300Z,0.20
2017-11-15T04:52:13.072Z,0.40
2017-11-15T04:54:40.852Z,0.20
2017-11-15T04:57:07.851Z,0.20
2017-11-15T04:59:34.870Z,0.20
2017-11-15T05:02:01.858Z,0.20
2017-11-15T05:04:28.868Z,0.20
2017-11-15T05:06:55.865Z,0.20
2017-11-15T05:09:23.615Z,0.10
2017-11-15T05:11:52.987Z,0.10
2017-11-15T05:14:19.975Z,0.00
2017-11-15T05:16:47.739Z,0.00
2017-11-15T05:19:14.762Z,0.00
2017-11-15T05:21:41.753Z,0.00
2017-11-15T05:24:08.759Z,0.00
2017-11-15T05:26:35.769Z,0.00
2017-11-15T05:29:02.762Z,0.00
2017-11-15T05:31:30.539Z,0.10
2017-11-15T05:33:57.551Z,0.10
2017-11-15T05:36:24.567Z,0.10
2017-11-15T05:38:51.556Z,0.10
2017-11-15T05:41:19.318Z,-0.10
2017-11-15T05:43:47.080Z,0.00
2017-11-15T05:46:14.856Z,-0.10
2017-11-15T05:48:41.880Z,-0.10
2017-11-15T05:51:08.903Z,-0.10
2017-11-15T05:53:35.909Z,-0.20
2017-11-15T05:56:02.915Z,-0.20
2017-11-15T05:58:29.915Z,-0.20
2017-11-15T06:00:56.931Z,-0.20
2017-11-15T06:03:23.939Z,-0.20
2017-11-15T06:05:50.935Z,-0.10
2017-11-15T06:08:18.055Z,-0.10
2017-11-15T06:10:45.854Z,-0.10
2017-11-15T06:13:13.588Z,0.00
2017-11-15T06:15:41.346Z,0.00
2017-11-15T06:18:09.283Z,0.00
2017-11-15T06:20:36.921Z,0.00
2017-11-15T06:23:03.930Z,0.00
2017-11-15T06:25:30.980Z,0.00
2017-11-15T06:27:57.971Z,0.00
2017-11-15T06:30:25.782Z,0.00
2017-11-15T06:32:53.532Z,0.00
2017-11-15T06:35:20.462Z,0.00
2017-11-15T06:37:47.490Z,0.00
2017-11-15T06:40:14.471Z,0.00
2017-11-15T06:42:41.470Z,0.00
2017-11-15T06:45:08.458Z,0.00
2017-11-15T06:47:35.465Z,0.10
2017-11-15T06:50:02.461Z,0.10
2017-11-15T06:52:30.258Z,0.00
2017-11-15T06:54:57.255Z,0.00
2017-11-15T06:57:24.246Z,0.00
2017-11-15T06:59:51.259Z,0.00
2017-11-15T07:02:19.023Z,0.00
2017-11-15T07:04:46.796Z,0.00
2017-11-15T07:07:14.559Z,0.00
2017-11-15T07:09:41.559Z,0.00
2017-11-15T07:12:08.559Z,0.00
2017-11-15T07:14:35.559Z,0.00
2017-11-15T07:17:02.548Z,0.10
2017-11-15T07:19:29.559Z,0.10
2017-11-15T07:21:56.551Z,0.30
2017-11-15T07:24:23.559Z,0.30
2017-11-15T07:26:51.325Z,0.60
2017-11-15T07:29:19.086Z,0.80
2017-11-15T07:31:46.847Z,0.90
2017-11-15T07:34:13.858Z,0.90
2017-11-15T07:36:40.860Z,1.10
2017-11-15T07:39:07.890Z,1.60
2017-11-15T07:41:35.644Z,2.10
2017-11-15T07:44:02.655Z,2.10
2017-11-15T07:46:29.663Z,2.10
2017-11-15T07:48:56.669Z,2.10
2017-11-15T07:51:23.671Z,2.30
2017-11-15T07:53:50.662Z,2.50
2017-11-15T07:56:17.668Z,2.60
2017-11-15T07:58:44.662Z,2.60
2017-11-15T08:01:11.675Z,2.60
2017-11-15T08:03:38.669Z,2.60
2017-11-15T08:06:06.436Z,2.80
2017-11-15T08:08:34.198Z,2.60
2017-11-15T08:11:01.969Z,2.40
2017-11-15T08:13:28.985Z,2.30
2017-11-15T08:15:55.983Z,2.20
2017-11-15T08:18:22.978Z,2.30
2017-11-15T08:20:50.004Z,2.10
2017-11-15T08:23:17.014Z,2.10
2017-11-15T08:25:44.068Z,2.00
2017-11-15T08:28:11.060Z,1.90
2017-11-15T08:30:38.080Z,2.00
2017-11-15T08:33:05.079Z,2.10
2017-11-15T08:35:32.084Z,2.30
2017-11-15T08:37:59.091Z,2.40
2017-11-15T08:40:26.079Z,2.40
2017-11-15T08:42:53.091Z,2.40
2017-11-15T08:45:20.535Z,2.50
2017-11-15T08:47:47.538Z,2.50
2017-11-15T08:50:14.534Z,2.60
2017-11-15T08:52:41.527Z,2.60
2017-11-15T08:55:08.534Z,2.50
2017-11-15T08:57:35.545Z,2.60
2017-11-15T09:00:02.561Z,2.50
2017-11-15T09:02:29.558Z,2.40
2017-11-15T09:04:56.560Z,2.50
2017-11-15T09:07:24.328Z,2.70
2017-11-15T09:09:52.087Z,2.90
2017-11-15T09:12:19.855Z,3.10
2017-11-15T09:14:47.614Z,3.40
2017-11-15T09:17:15.379Z,3.80
2017-11-15T09:19:43.134Z,4.30
2017-11-15T09:22:10.131Z,4.30
2017-11-15T09:24:37.143Z,4.90
2017-11-15T09:27:04.919Z,6.40
2017-11-15T09:29:31.930Z,6.40
2017-11-15T09:31:59.699Z,6.20
2017-11-15T09:34:27.475Z,7.80
2017-11-15T09:36:55.231Z,8.30
2017-11-15T09:39:23.011Z,8.50
2017-11-15T09:41:50.014Z,8.50
2017-11-15T09:44:17.034Z,9.30
2017-11-15T09:46:44.022Z,9.80
2017-11-15T09:49:11.039Z,10.20
2017-11-15T09:51:38.037Z,10.60
2017-11-15T09:54:05.807Z,10.90
2017-11-15T09:56:32.804Z,10.90
2017-11-15T09:58:59.800Z,11.10
2017-11-15T10:01:26.811Z,11.80
2017-11-15T10:03:53.808Z,12.30
2017-11-15T10:06:20.807Z,12.80
2017-11-15T10:08:47.837Z,13.20
2017-11-15T10:11:14.844Z,12.20
2017-11-15T10:13:41.847Z,13.20
2017-11-15T10:16:09.629Z,11.30
2017-11-15T10:18:37.387Z,12.30
2017-11-15T10:21:05.158Z,12.80
2017-11-15T10:23:33.299Z,14.00
2017-11-15T10:26:00.324Z,14.00
2017-11-15T10:28:27.320Z,11.20
2017-11-15T10:30:54.358Z,11.80
2017-11-15T10:33:22.209Z,14.10
2017-11-15T10:35:49.324Z,14.10
2017-11-15T10:38:16.330Z,14.30
2017-11-15T10:40:43.340Z,14.20
2017-11-15T10:43:10.337Z,14.60
2017-11-15T10:45:37.365Z,14.70
2017-11-15T10:48:11.043Z,14.50
2017-11-15T10:50:38.116Z,14.80
2017-11-15T10:53:05.119Z,14.60
2017-11-15T10:55:32.125Z,14.70
2017-11-15T10:57:59.164Z,14.50
2017-11-15T11:00:31.837Z,14.90
2017-11-15T11:02:58.849Z,15.10
2017-11-15T11:05:25.863Z,14.80
2017-11-15T11:07:53.998Z,14.00
2017-11-15T11:10:21.063Z,14.00
2017-11-15T11:12:48.104Z,14.30
2017-11-15T11:15:15.867Z,14.20
2017-11-15T11:17:42.873Z,14.20
2017-11-15T11:20:10.640Z,14.00
2017-11-15T11:22:38.404Z,13.90
2017-11-15T11:25:06.167Z,14.10
2017-11-15T11:27:33.952Z,14.40
2017-11-15T11:30:00.964Z,14.40
2017-11-15T11:32:27.957Z,14.10
2017-11-15T11:34:54.955Z,14.00
2017-11-15T11:37:21.992Z,14.40
2017-11-15T11:39:48.988Z,14.50
2017-11-15T11:42:15.995Z,14.20
2017-11-15T11:44:43.010Z,14.70
2017-11-15T11:47:10.020Z,14.50
2017-11-15T11:49:37.020Z,14.30
2017-11-15T11:52:04.021Z,14.20
2017-11-15T11:54:31.024Z,14.30
2017-11-15T11:56:58.063Z,14.70
2017-11-15T11:59:25.059Z,14.60
2017-11-15T12:01:52.060Z,14.90
2017-11-15T12:04:19.071Z,15.00
2017-11-15T12:06:46.108Z,15.30
2017-11-15T12:09:13.116Z,14.70
2017-11-15T12:11:40.879Z,14.30
2017-11-15T12:14:09.018Z,14.00
2017-11-15T12:16:36.017Z,14.00
2017-11-15T12:19:03.026Z,14.10
2017-11-15T12:21:30.815Z,14.00
2017-11-15T12:23:57.826Z,13.90
2017-11-15T12:26:24.822Z,13.90
2017-11-15T12:28:51.830Z,13.90
2017-11-15T12:31:19.637Z,13.30
2017-11-15T12:33:46.655Z,13.30
2017-11-15T12:36:14.432Z,13.10
2017-11-15T12:38:41.443Z,13.10
2017-11-15T12:41:08.438Z,12.90
2017-11-15T12:43:35.466Z,12.90
2017-11-15T12:46:02.470Z,13.20
2017-11-15T12:48:29.470Z,13.00
2017-11-15T12:50:56.475Z,12.80
2017-11-15T12:53:24.244Z,12.10
2017-11-15T12:55:52.016Z,11.80
2017-11-15T12:58:19.775Z,11.90
2017-11-15T13:00:47.539Z,12.00
2017-11-15T13:03:15.312Z,12.10
2017-11-15T13:05:43.083Z,12.00
2017-11-15T13:08:10.078Z,12.00
2017-11-15T13:10:37.085Z,11.90
2017-11-15T13:13:04.085Z,11.90
2017-11-15T13:15:31.104Z,11.80
2017-11-15T13:17:58.105Z,11.80
2017-11-15T13:20:25.116Z,11.80
2017-11-15T13:22:52.116Z,11.90
2017-11-15T13:25:19.134Z,11.80
2017-11-15T13:27:46.908Z,10.60
2017-11-15T13:30:13.937Z,10.60
2017-11-15T13:32:41.717Z,10.70
2017-11-15T13:35:08.723Z,10.70
2017-11-15T13:37:35.732Z,10.60
2017-11-15T13:40:02.745Z,10.70
2017-11-15T13:42:30.515Z,10.70
2017-11-15T13:44:57.541Z,10.70
2017-11-15T13:47:25.307Z,10.00
2017-11-15T13:49:53.093Z,10.50
2017-11-15T13:52:20.091Z,10.50
2017-11-15T13:54:47.684Z,10.90
2017-11-15T13:57:15.451Z,10.80
2017-11-15T13:59:43.234Z,10.80
2017-11-15T14:02:10.245Z,10.80
2017-11-15T14:04:37.262Z,10.60
2017-11-15T14:07:04.274Z,10.50
2017-11-15T14:09:31.287Z,10.30
2017-11-15T14:11:59.055Z,10.10
2017-11-15T14:14:26.817Z,9.80
2017-11-15T14:16:54.594Z,9.50
2017-11-15T14:19:21.620Z,9.50
2017-11-15T14:21:49.384Z,9.50
2017-11-15T14:24:17.147Z,9.40
2017-11-15T14:26:44.917Z,9.30
2017-11-15T14:29:12.684Z,9.20
2017-11-15T14:31:40.455Z,9.10
2017-11-15T14:34:07.457Z,9.10
2017-11-15T14:36:34.562Z,9.00
2017-11-15T14:39:01.575Z,9.00
2017-11-15T14:41:29.344Z,8.80
2017-11-15T14:43:57.871Z,8.80
2017-11-15T14:46:24.872Z,8.80
2017-11-15T14:48:52.649Z,8.70
2017-11-15T14:51:19.656Z,8.70
2017-11-15T14:53:46.730Z,8.70
2017-11-15T14:56:14.530Z,8.50
2017-11-15T14:58:42.316Z,8.30
2017-11-15T15:01:09.306Z,8.30
2017-11-15T15:03:37.071Z,8.10
2017-11-15T15:06:04.839Z,8.00
2017-11-15T15:08:32.618Z,7.80
2017-11-15T15:10:59.621Z,7.80
2017-11-15T15:13:26.623Z,7.80
2017-11-15T15:15:53.628Z,7.60
2017-11-15T15:18:21.397Z,7.40
2017-11-15T15:20:49.162Z,7.30
2017-11-15T15:23:16.939Z,7.10
2017-11-15T15:25:43.943Z,7.10
2017-11-15T15:28:10.989Z,7.20
2017-11-15T15:30:37.960Z,7.70
2017-11-15T15:33:05.728Z,7.20
2017-11-15T15:35:33.515Z,7.00
2017-11-15T15:38:00.515Z,7.00
2017-11-15T15:40:27.525Z,6.80
2017-11-15T15:42:54.518Z,6.60
2017-11-15T15:45:22.284Z,6.20
2017-11-15T15:47:50.410Z,6.00
2017-11-15T15:50:17.433Z,6.00
2017-11-15T15:52:44.394Z,5.90
2017-11-15T15:55:11.384Z,5.80
2017-11-15T15:57:38.386Z,5.60
2017-11-15T16:00:05.412Z,5.60
2017-11-15T16:02:32.403Z,5.50
2017-11-15T16:05:00.544Z,5.40
2017-11-15T16:07:27.657Z,5.30
2017-11-15T16:09:54.683Z,5.20
2017-11-15T16:12:21.692Z,5.10
2017-11-15T16:14:48.684Z,5.10
2017-11-15T16:17:16.446Z,5.00
2017-11-15T16:19:44.739Z,4.90
2017-11-15T16:22:11.739Z,4.90
2017-11-15T16:24:38.739Z,4.90
2017-11-15T16:27:05.737Z,4.80
2017-11-15T16:29:32.755Z,4.80
2017-11-15T16:31:59.752Z,4.80
2017-11-15T16:34:27.530Z,4.60
2017-11-15T16:36:54.563Z,4.60
2017-11-15T16:39:22.323Z,4.50
2017-11-15T16:41:50.095Z,4.50
2017-11-15T16:44:17.851Z,4.50
2017-11-15T16:46:45.619Z,4.50
2017-11-15T16:49:13.375Z,4.40
2017-11-15T16:51:42.263Z,4.30
2017-11-15T16:54:10.028Z,4.30
2017-11-15T16:56:37.792Z,4.30
2017-11-15T16:59:05.982Z,4.20
2017-11-15T17:01:33.015Z,4.10
2017-11-15T17:04:00.783Z,4.00
2017-11-15T17:06:29.635Z,4.00
2017-11-15T17:08:56.616Z,3.90
2017-11-15T17:11:24.387Z,3.60
2017-11-15T17:13:51.395Z,3.60
2017-11-15T17:16:18.415Z,3.40
2017-11-15T17:18:45.410Z,3.30
2017-11-15T17:21:13.174Z,3.20
2017-11-15T17:23:40.947Z,3.10
2017-11-15T17:26:07.960Z,3.10
2017-11-15T17:28:35.015Z,2.90
2017-11-15T17:31:02.108Z,2.80
2017-11-15T17:33:30.778Z,2.80
2017-11-15T17:35:57.768Z,2.70
2017-11-15T17:38:24.836Z,2.60
2017-11-15T17:40:52.608Z,2.60
2017-11-15T17:43:20.383Z,2.50
2017-11-15T17:45:48.155Z,2.50
2017-11-15T17:48:15.156Z,2.50
2017-11-15T17:50:42.187Z,2.50
2017-11-15T17:53:09.194Z,2.40
2017-11-15T17:55:36.952Z,2.40
2017-11-15T17:58:03.959Z,2.40
2017-11-15T18:00:31.082Z,2.30
2017-11-15T18:02:58.100Z,2.30
2017-11-15T18:05:25.097Z,2.20
2017-11-15T18:07:52.090Z,2.20
2017-11-15T18:10:19.663Z,2.20
2017-11-15T18:12:47.610Z,2.30
2017-11-15T18:15:14.622Z,2.20
2017-11-15T18:17:41.619Z,2.10
2017-11-15T18:20:08.631Z,2.20
2017-11-15T18:22:36.396Z,2.30
2017-11-15T18:25:04.166Z,2.30
2017-11-15T18:27:31.960Z,2.30
2017-11-15T18:29:58.983Z,2.20
2017-11-15T18:32:25.994Z,2.30
2017-11-15T18:34:52.995Z,2.20
2017-11-15T18:37:19.992Z,2.20
2017-11-15T18:39:47.864Z,2.20
2017-11-15T18:42:14.896Z,2.30
2017-11-15T18:44:42.000Z,2.30
2017-11-15T18:47:09.002Z,2.40
2017-11-15T18:49:36.803Z,2.40
2017-11-15T18:52:03.804Z,2.30
2017-11-15T18:54:30.822Z,2.40
2017-11-15T18:56:57.843Z,2.40
2017-11-15T18:59:24.876Z,2.30
2017-11-15T19:01:52.642Z,2.40
2017-11-15T19:04:19.649Z,2.40
2017-11-15T19:06:46.720Z,2.40
2017-11-15T19:09:14.480Z,2.40
2017-11-15T19:11:42.251Z,2.40
2017-11-15T19:14:10.020Z,2.40
2017-11-15T19:16:37.014Z,2.40
2017-11-15T19:19:04.011Z,2.40
2017-11-15T19:21:31.019Z,2.50
2017-11-15T19:23:58.018Z,2.40
2017-11-15T19:26:25.015Z,2.40
2017-11-15T19:28:52.010Z,2.40
2017-11-15T19:31:19.042Z,2.50
2017-11-15T19:33:46.044Z,2.50
2017-11-15T19:36:13.067Z,2.50
2017-11-15T19:38:40.063Z,2.50
2017-11-15T19:41:08.958Z,2.50
2017-11-15T19:43:36.785Z,2.40
2017-11-15T19:46:04.072Z,2.40
2017-11-15T19:48:31.818Z,2.40
2017-11-15T19:50:58.942Z,2.30
2017-11-15T19:53:26.707Z,2.30
2017-11-15T19:55:53.741Z,2.30
2017-11-15T19:58:20.744Z,2.20
2017-11-15T20:00:48.507Z,2.20
2017-11-15T20:03:16.267Z,2.10
2017-11-15T20:05:44.031Z,2.10
2017-11-15T20:08:11.791Z,2.10
2017-11-15T20:10:39.543Z,2.10
2017-11-15T20:13:07.307Z,2.00
2017-11-15T20:15:35.174Z,2.00
2017-11-15T20:18:04.184Z,2.00
2017-11-15T20:20:32.210Z,2.00
2017-11-15T20:22:59.222Z,2.00
2017-11-15T20:25:26.215Z,2.00
2017-11-15T20:27:54.876Z,2.00
2017-11-15T20:30:22.208Z,2.00
2017-11-15T20:32:49.336Z,1.90
2017-11-15T20:35:24.006Z,1.90
2017-11-15T20:37:51.016Z,1.90
2017-11-15T20:40:18.019Z,1.90
2017-11-15T20:42:45.677Z,1.90
2017-11-15T20:45:13.821Z,1.80
2017-11-15T20:47:40.869Z,1.80
2017-11-15T20:50:07.877Z,1.80
2017-11-15T20:52:35.290Z,1.70
2017-11-15T20:55:02.453Z,1.70
2017-11-15T20:57:30.236Z,1.70
2017-11-15T20:59:58.034Z,1.60
2017-11-15T21:02:25.036Z,1.60
2017-11-15T21:04:52.794Z,1.60
2017-11-15T21:07:20.576Z,1.50
2017-11-15T21:09:49.167Z,1.30
2017-11-15T21:12:16.183Z,1.30
2017-11-15T21:14:43.955Z,1.20
2017-11-15T21:17:10.955Z,1.20
2017-11-15T21:19:39.107Z,1.10
2017-11-15T21:22:06.108Z,1.10
2017-11-15T21:24:33.144Z,1.00
2017-11-15T21:27:00.207Z,1.00
2017-11-15T21:29:27.249Z,1.00
2017-11-15T21:31:54.238Z,0.80
2017-11-15T21:34:21.242Z,0.80
2017-11-15T21:36:49.007Z,0.70
2017-11-15T21:39:16.048Z,0.70
2017-11-15T21:41:43.063Z,0.70
2017-11-15T21:44:10.066Z,0.70
2017-11-15T21:46:37.077Z,0.70
2017-11-15T21:49:04.082Z,0.60
2017-11-15T21:51:31.082Z,0.70
2017-11-15T21:53:58.848Z,0.60
2017-11-15T21:56:26.719Z,0.60
2017-11-15T21:58:54.486Z,0.60
2017-11-15T22:01:22.247Z,0.70
2017-11-15T22:03:50.025Z,0.90
2017-11-15T22:06:17.061Z,0.80
2017-11-15T22:08:44.825Z,1.00
2017-11-15T22:11:12.664Z,1.00
2017-11-15T22:13:39.679Z,1.00
2017-11-15T22:16:06.683Z,1.00
2017-11-15T22:18:33.696Z,0.90
2017-11-15T22:21:00.691Z,0.70
2017-11-15T22:23:27.710Z,0.50
2017-11-15T22:25:55.474Z,0.40
2017-11-15T22:28:23.270Z,0.40
2017-11-15T22:30:50.282Z,0.40
2017-11-15T22:33:18.458Z,0.30
2017-11-15T22:35:46.226Z,0.30
2017-11-15T22:38:13.991Z,0.40
2017-11-15T22:40:41.043Z,0.30
2017-11-15T22:43:08.078Z,0.50
2017-11-15T22:45:35.848Z,0.60
2017-11-15T22:48:03.607Z,0.70
2017-11-15T22:50:31.384Z,0.70
2017-11-15T22:52:58.396Z,0.70
2017-11-15T22:55:25.391Z,0.70
2017-11-15T22:57:52.430Z,0.80
2017-11-15T23:00:19.441Z,0.80
2017-11-15T23:02:47.231Z,0.90
2017-11-15T23:05:14.232Z,0.80
2017-11-15T23:07:41.230Z,0.90
2017-11-15T23:10:08.238Z,0.90
2017-11-15T23:12:36.011Z,0.80
2017-11-15T23:15:03.776Z,0.60
2017-11-15T23:17:31.550Z,0.50
2017-11-15T23:19:59.343Z,0.40
2017-11-15T23:22:26.345Z,0.40
2017-11-15T23:24:54.129Z,0.40
2017-11-15T23:27:21.129Z,0.30
2017-11-15T23:29:48.136Z,0.20
2017-11-15T23:32:15.143Z,0.10
2017-11-15T23:34:42.904Z,0.00
2017-11-15T23:37:10.694Z,0.00
2017-11-15T23:39:37.698Z,0.00
2017-11-15T23:42:04.702Z,0.00
2017-11-15T23:44:31.719Z,-0.10
2017-11-15T23:46:59.511Z,0.00
2017-11-15T23:49:26.518Z,-0.10
2017-11-15T23:51:53.539Z,-0.10
2017-11-15T23:54:20.573Z,-0.10
2017-11-15T23:56:47.601Z,-0.10
2017-11-15T23:59:14.608Z,0.00
